»·PEaware :: JUS326 KOTH-KPDX

JUS326 :: KOTH-KPDX

FLIGHT INFORMATION

Flight Status: Arrived
Operator:
USA Jet
More flights by this operator :: More flights under this callsign
Pilot: Erik S. (3779)
Aircraft: BOEING 737-300
(B733)
More flights by this aircraft type
Origin: KOTH North Bend Mun
United States
Destination: KPDX Portland Intl
United States
More flights between these airports :: More routes between these airports
Route: +OTH6 OTH V287 BTG
File this flight plan on PilotEdge
Remarks:
Altitude:
(Current/Filed)
23,000ft
Speed:
(Current/Filed)
400kts
Departed: 26-Feb-18 09:27 AM
Arrived: 26-Feb-18 10:06 AM
Distance/Time
Traveled:
148nm/0:38
Distance/Time
To Go:
Arrived

Flight Plot

Page will automatically refresh every two minutes.

Flight plan parsing failed; only flown route is shown


Map Options




Map Legend


Flown Route
Filed Route
Departure Airport
Arrival Airport
Navaid (VOR, NDB)
Fix

Horizontal Profiles

Position Reports

Time Latitude Longitude Heading Altitude Ground
Speed
26-Feb-18 09:07 43.417591 -124.247447 150 24ft 0kts
26-Feb-18 09:08 43.417591 -124.247447 150 24ft 0kts
26-Feb-18 09:09 43.417591 -124.247447 150 24ft 0kts
26-Feb-18 09:10 43.417591 -124.247447 150 24ft 0kts
26-Feb-18 09:11 43.417591 -124.247447 150 24ft 0kts
26-Feb-18 09:12 43.417591 -124.247447 150 24ft 0kts
26-Feb-18 09:13 43.417591 -124.247447 150 24ft 0kts
26-Feb-18 09:14 43.417591 -124.247447 150 24ft 0kts
26-Feb-18 09:15 43.417591 -124.247447 150 24ft 0kts
26-Feb-18 09:16 43.417591 -124.247447 150 24ft 0kts
26-Feb-18 09:17 43.417591 -124.247447 150 24ft 0kts
26-Feb-18 09:18 43.417591 -124.247447 150 24ft 0kts
26-Feb-18 09:19 43.417591 -124.247447 150 24ft 0kts
26-Feb-18 09:20 43.417591 -124.247447 150 24ft 0kts
26-Feb-18 09:21 43.417564 -124.247426 150 24ft 1kts
26-Feb-18 09:22 43.418988 -124.246979 340 24ft 8kts
26-Feb-18 09:23 43.419071 -124.246985 13 24ft 0kts
26-Feb-18 09:24 43.419071 -124.246985 13 24ft 0kts
26-Feb-18 09:25 43.419079 -124.246981 16 24ft 0kts
26-Feb-18 09:26 43.419198 -124.246785 62 24ft 0kts
26-Feb-18 09:27 43.418671 -124.246746 330 24ft 15kts
26-Feb-18 09:28 43.418856 -124.246886 334 24ft 0kts
26-Feb-18 09:29 43.418856 -124.246886 334 24ft 0kts
26-Feb-18 09:30 43.418856 -124.246886 334 24ft 0kts
26-Feb-18 09:31 43.418856 -124.246886 334 24ft 0kts
26-Feb-18 09:32 43.418856 -124.246886 334 24ft 0kts
26-Feb-18 09:33 43.418856 -124.246886 334 24ft 0kts
26-Feb-18 09:34 43.413472 -124.241137 149 24ft 118kts
26-Feb-18 09:35 43.387393 -124.250388 287 2099ft 150kts
26-Feb-18 09:36 43.405643 -124.312172 269 3970ft 201kts
26-Feb-18 09:37 43.409048 -124.395259 304 6014ft 233kts
26-Feb-18 09:38 43.457509 -124.388543 76 7959ft 218kts
26-Feb-18 09:39 43.441994 -124.302536 104 9537ft 266kts
26-Feb-18 09:40 43.416797 -124.196361 102 10684ft 324kts
26-Feb-18 09:41 43.455938 -124.100429 12 12168ft 320kts
26-Feb-18 09:42 43.544430 -124.082602 7 13971ft 327kts
26-Feb-18 09:43 43.630347 -124.038314 18 15433ft 335kts
26-Feb-18 09:44 43.717249 -123.988628 21 17025ft 343kts
26-Feb-18 09:45 43.805305 -123.935686 21 18827ft 352kts
26-Feb-18 09:46 43.895991 -123.881319 21 20679ft 362kts
26-Feb-18 09:47 43.989286 -123.825259 21 22381ft 371kts
26-Feb-18 09:48 44.085607 -123.766903 21 23229ft 394kts
26-Feb-18 09:49 44.187175 -123.705082 21 23246ft 402kts
26-Feb-18 09:50 44.289283 -123.642706 21 23236ft 402kts
26-Feb-18 09:51 44.391432 -123.579861 21 23230ft 402kts
26-Feb-18 09:52 44.493657 -123.516896 21 23230ft 402kts
26-Feb-18 09:53 44.595203 -123.454238 21 23221ft 402kts
26-Feb-18 09:54 44.697352 -123.390932 21 22921ft 406kts
26-Feb-18 09:55 44.794604 -123.330237 21 20695ft 364kts
26-Feb-18 09:56 44.883381 -123.274718 21 18297ft 340kts
26-Feb-18 09:57 44.967465 -123.222015 21 15899ft 326kts
26-Feb-18 09:58 45.048625 -123.170984 21 13511ft 316kts
26-Feb-18 09:59 45.127531 -123.121119 21 11115ft 307kts
26-Feb-18 10:00 45.203085 -123.073269 21 9981ft 277kts
26-Feb-18 10:01 45.272256 -123.029407 21 8954ft 273kts
26-Feb-18 10:02 45.340164 -122.986192 22 6982ft 269kts
26-Feb-18 10:03 45.401745 -122.930580 32 5956ft 258kts
26-Feb-18 10:04 45.465959 -122.895552 355 4996ft 264kts
26-Feb-18 10:05 45.535820 -122.904544 355 3951ft 228kts
26-Feb-18 10:06 45.595105 -122.912131 355 3958ft 212kts
26-Feb-18 10:07 45.650902 -122.888533 25 2983ft 208kts
26-Feb-18 10:08 45.677192 -122.832090 107 2990ft 199kts
26-Feb-18 10:09 45.651770 -122.765416 121 2377ft 180kts
26-Feb-18 10:10 45.630356 -122.712091 119 1480ft 140kts
26-Feb-18 10:11 45.611766 -122.664132 119 737ft 137kts
26-Feb-18 10:12 45.593356 -122.616946 119 36ft 130kts
26-Feb-18 10:13 45.586538 -122.596256 118 31ft 10kts
26-Feb-18 10:14 45.584945 -122.592183 118 31ft 15kts
26-Feb-18 10:15 45.582003 -122.584522 107 31ft 21kts
26-Feb-18 10:16 45.582508 -122.581499 28 31ft 0kts
26-Feb-18 10:17 45.582508 -122.581499 28 31ft 0kts
26-Feb-18 10:18 45.582508 -122.581499 28 31ft 0kts
26-Feb-18 10:19 45.582508 -122.581499 28 31ft 0kts
26-Feb-18 10:20 45.582508 -122.581499 28 31ft 0kts
26-Feb-18 10:21 45.582508 -122.581499 28 31ft 0kts
26-Feb-18 10:22 45.582508 -122.581499 28 31ft 0kts
26-Feb-18 10:23 45.582508 -122.581499 28 31ft 0kts
26-Feb-18 10:24 45.582508 -122.581499 28 31ft 0kts
26-Feb-18 10:25 45.582508 -122.581499 28 31ft 0kts
26-Feb-18 10:26 45.582508 -122.581499 28 31ft 0kts
26-Feb-18 10:27 45.582508 -122.581499 28 31ft 0kts

Navigation Log

Ident Type
Flight plan parsing failed, navigation log unavailable